Time;durP1;ratioP1;P1;durP2;ratioP2;P2;SDS_P1;SDS_P2;PMS_P1;PMS_P2;Temp;Humidity;BMP_temperature;BMP_pressure;BME280_temperature;BME280_humidity;BME280_pressure;Samples;Min_cycle;Max_cycle;Signal;HPM_P1;HPM_P2
2022/07/12 00:01:04;;;;;;;3.20;2.70;;;15.30;99.90;;;;;;5028711;28;20017;-49
2022/07/12 00:03:30;;;;;;;3.67;2.45;;;15.20;99.90;;;;;;5028386;28;20513;-48
2022/07/12 00:05:56;;;;;;;2.53;2.05;;;15.20;99.90;;;;;;5028467;28;20029;-50
2022/07/12 00:08:22;;;;;;;2.45;1.98;;;15.10;99.90;;;;;;5028799;28;20092;-49
2022/07/12 00:10:47;;;;;;;2.15;1.95;;;15.10;99.90;;;;;;5028610;28;20105;-49
2022/07/12 00:13:13;;;;;;;4.40;2.75;;;15.10;99.90;;;;;;5028631;28;20065;-47
2022/07/12 00:15:38;;;;;;;2.50;2.30;;;15.00;99.90;;;;;;5032577;28;20590;-49
2022/07/12 00:18:04;;;;;;;4.10;2.47;;;15.00;99.90;;;;;;5035256;28;20022;-47
2022/07/12 00:20:29;;;;;;;3.28;2.63;;;15.00;99.90;;;;;;5029017;28;20033;-48
2022/07/12 00:22:55;;;;;;;4.45;2.28;;;15.00;99.90;;;;;;5025460;28;20030;-49
2022/07/12 00:25:21;;;;;;;2.88;2.53;;;14.90;99.90;;;;;;5021855;28;20044;-48
2022/07/12 00:27:46;;;;;;;4.05;2.72;;;14.90;99.90;;;;;;5020057;28;20121;-50
2022/07/12 00:30:12;;;;;;;4.35;2.45;;;14.90;99.90;;;;;;5023038;28;20129;-47
2022/07/12 00:32:37;;;;;;;3.15;2.75;;;14.80;99.90;;;;;;5031519;28;20029;-48
2022/07/12 00:35:05;;;;;;;3.67;2.30;;;14.80;99.90;;;;;;5032522;28;20030;-48
2022/07/12 00:37:31;;;;;;;5.05;2.47;;;14.80;99.90;;;;;;5033008;28;20084;-48
2022/07/12 00:39:58;;;;;;;3.30;3.00;;;14.70;99.90;;;;;;5032785;28;20037;-48
2022/07/12 00:42:24;;;;;;;4.78;3.13;;;14.70;99.90;;;;;;5032803;28;20037;-50
2022/07/12 00:44:50;;;;;;;3.20;2.90;;;14.70;99.90;;;;;;5032061;28;20013;-49
2022/07/12 00:47:37;;;;;;;2.85;2.65;;;14.70;99.90;;;;;;5033249;28;20071;-48
2022/07/12 00:50:05;;;;;;;3.40;2.90;;;14.70;99.90;;;;;;5030796;28;20116;-48
2022/07/12 00:52:31;;;;;;;3.40;2.80;;;14.70;99.90;;;;;;5021627;28;20049;-48
2022/07/12 00:54:56;;;;;;;3.00;2.42;;;14.70;99.90;;;;;;5022674;28;20050;-49
2022/07/12 00:57:22;;;;;;;3.30;2.50;;;14.60;99.90;;;;;;5039378;28;20445;-49
2022/07/12 00:59:48;;;;;;;5.53;3.58;;;14.60;99.90;;;;;;5043895;28;20031;-51
2022/07/12 01:02:13;;;;;;;6.25;3.55;;;14.60;99.90;;;;;;5020773;28;20032;-47
2022/07/12 01:04:39;;;;;;;3.40;2.85;;;14.50;99.90;;;;;;5022235;28;20057;-49
2022/07/12 01:07:05;;;;;;;4.82;3.15;;;14.50;99.90;;;;;;5012186;28;20026;-48
2022/07/12 01:09:30;;;;;;;3.80;3.20;;;14.50;99.90;;;;;;5012340;28;20144;-47
2022/07/12 01:11:56;;;;;;;5.05;3.42;;;14.50;99.90;;;;;;5012352;28;20276;-49
2022/07/12 01:14:22;;;;;;;4.15;3.30;;;14.50;99.90;;;;;;5010821;28;20042;-49
2022/07/12 01:16:48;;;;;;;3.67;3.30;;;14.50;99.90;;;;;;5011105;28;20389;-47
2022/07/12 01:19:20;;;;;;;3.88;3.20;;;14.50;99.90;;;;;;5011330;28;20041;-49
2022/07/12 01:21:48;;;;;;;7.35;3.47;;;14.40;99.90;;;;;;5011813;28;20388;-48
2022/07/12 01:24:14;;;;;;;3.97;3.33;;;14.40;99.90;;;;;;5011599;28;20143;-50
2022/07/12 01:26:40;;;;;;;3.85;3.05;;;14.40;99.90;;;;;;5020511;28;20117;-47
2022/07/12 01:29:08;;;;;;;4.60;3.17;;;14.40;99.90;;;;;;5044837;28;20519;-47
2022/07/12 01:31:37;;;;;;;4.43;3.88;;;14.40;99.90;;;;;;5051506;28;20486;-47
2022/07/12 01:34:03;;;;;;;8.07;3.58;;;14.40;99.90;;;;;;5050647;28;20033;-47
2022/07/12 01:36:30;;;;;;;6.78;3.70;;;14.40;99.90;;;;;;5051454;28;20021;-47
2022/07/12 01:38:55;;;;;;;7.25;4.20;;;14.30;99.90;;;;;;5051451;28;20060;-47
2022/07/12 01:41:23;;;;;;;3.83;3.40;;;14.30;99.90;;;;;;5050209;28;20114;-48
2022/07/12 01:43:49;;;;;;;5.63;3.40;;;14.30;99.90;;;;;;5051104;28;20474;-48
2022/07/12 01:46:15;;;;;;;5.38;3.92;;;14.30;99.90;;;;;;5047591;28;20025;-50
2022/07/12 01:48:40;;;;;;;5.28;3.50;;;14.30;99.90;;;;;;5030633;28;20052;-47
2022/07/12 01:51:06;;;;;;;4.82;3.70;;;14.20;99.90;;;;;;5030935;28;20017;-48
2022/07/12 01:53:31;;;;;;;4.35;3.40;;;14.30;99.90;;;;;;5030936;28;20075;-50
2022/07/12 01:55:57;;;;;;;4.97;3.15;;;14.20;99.90;;;;;;5027120;28;20035;-51
2022/07/12 01:58:23;;;;;;;3.30;3.00;;;14.20;99.90;;;;;;5030936;28;20038;-50
2022/07/12 02:00:52;;;;;;;4.80;3.85;;;14.20;99.90;;;;;;5050213;28;20031;-48
2022/07/12 02:03:18;;;;;;;3.83;3.00;;;14.20;99.90;;;;;;5036879;28;20092;-49
2022/07/12 02:05:44;;;;;;;7.00;3.50;;;14.20;99.90;;;;;;5027827;28;20025;-48
2022/07/12 02:08:10;;;;;;;5.18;3.75;;;14.10;99.90;;;;;;5025600;28;20343;-48
2022/07/12 02:10:35;;;;;;;5.07;3.60;;;14.10;99.90;;;;;;5019707;28;20057;-47
2022/07/12 02:13:05;;;;;;;6.55;3.65;;;14.10;99.90;;;;;;5027961;28;20064;-48
2022/07/12 02:15:31;;;;;;;4.28;3.55;;;14.10;99.90;;;;;;5020323;28;20538;-48
2022/07/12 02:17:56;;;;;;;3.63;3.22;;;14.00;99.90;;;;;;5024673;28;20028;-48
2022/07/12 02:20:22;;;;;;;4.63;4.05;;;14.00;99.90;;;;;;5027927;28;20079;-48
2022/07/12 02:22:47;;;;;;;6.25;4.72;;;14.00;99.90;;;;;;5030507;28;20398;-48
2022/07/12 02:25:13;;;;;;;4.10;3.70;;;14.00;99.90;;;;;;5030251;28;20498;-48
2022/07/12 02:27:40;;;;;;;10.32;4.60;;;14.00;99.90;;;;;;5038623;28;20107;-48
2022/07/12 02:30:07;;;;;;;6.03;3.97;;;13.90;99.90;;;;;;5029044;28;20018;-48
2022/07/12 02:32:32;;;;;;;10.77;4.82;;;13.90;99.90;;;;;;5030149;28;20561;-48
2022/07/12 02:34:58;;;;;;;4.82;4.25;;;13.80;99.90;;;;;;5029700;28;20033;-48
2022/07/12 02:37:24;;;;;;;6.78;5.10;;;13.80;99.90;;;;;;5030326;28;20025;-47
2022/07/12 02:39:49;;;;;;;9.68;5.55;;;13.80;99.90;;;;;;5030362;28;20069;-48
2022/07/12 02:42:14;;;;;;;8.25;4.68;;;13.80;99.90;;;;;;5030279;28;20391;-48
2022/07/12 02:44:40;;;;;;;6.30;4.97;;;13.80;99.90;;;;;;5029758;28;20049;-48
2022/07/12 02:47:05;;;;;;;6.70;4.78;;;13.80;99.90;;;;;;5030105;28;20022;-48
2022/07/12 02:49:31;;;;;;;9.05;5.63;;;13.70;99.90;;;;;;5029799;28;20014;-48
2022/07/12 02:51:56;;;;;;;7.93;5.88;;;13.70;99.90;;;;;;5029928;28;20499;-48
2022/07/12 02:54:22;;;;;;;9.77;6.45;;;13.70;99.90;;;;;;5029587;28;20029;-48
2022/07/12 02:56:47;;;;;;;12.73;7.60;;;13.80;99.90;;;;;;5032861;28;20028;-48
2022/07/12 02:59:13;;;;;;;9.63;6.57;;;13.80;99.90;;;;;;5043708;28;20067;-48
2022/07/12 03:01:38;;;;;;;10.38;7.35;;;13.80;99.90;;;;;;5029983;28;20032;-47
2022/07/12 03:04:04;;;;;;;9.23;7.10;;;13.80;99.90;;;;;;5028934;28;20482;-47
2022/07/12 03:06:29;;;;;;;11.35;7.50;;;13.80;99.90;;;;;;5029906;28;20132;-48
2022/07/12 03:08:55;;;;;;;15.63;9.40;;;13.80;99.90;;;;;;5029835;28;20694;-48
2022/07/12 03:11:20;;;;;;;11.80;8.23;;;13.90;99.90;;;;;;5029692;28;20495;-48
2022/07/12 03:13:46;;;;;;;14.02;8.57;;;13.90;99.90;;;;;;5029531;28;20568;-48
2022/07/12 03:16:11;;;;;;;13.25;9.35;;;13.90;99.90;;;;;;5029102;28;20047;-50
2022/07/12 03:18:39;;;;;;;13.98;9.05;;;13.90;99.90;;;;;;5029967;28;20044;-48
2022/07/12 03:21:05;;;;;;;13.60;9.07;;;13.90;99.90;;;;;;5041224;28;20271;-48
2022/07/12 03:23:30;;;;;;;12.00;8.02;;;13.90;99.90;;;;;;5049804;28;20077;-47
2022/07/12 03:25:56;;;;;;;15.85;8.50;;;14.00;99.90;;;;;;5049045;28;20492;-48
2022/07/12 03:28:21;;;;;;;11.25;8.68;;;14.00;99.90;;;;;;5049757;28;20025;-50
2022/07/12 03:30:47;;;;;;;12.85;9.18;;;14.00;99.90;;;;;;5049262;28;20410;-47
2022/07/12 03:33:13;;;;;;;15.52;9.15;;;13.90;99.90;;;;;;5049041;28;20128;-47
2022/07/12 03:35:38;;;;;;;14.93;10.07;;;13.90;99.90;;;;;;5049077;28;20021;-49
2022/07/12 03:38:04;;;;;;;18.70;10.55;;;13.90;99.90;;;;;;5049206;28;20065;-47
2022/07/12 03:40:32;;;;;;;23.77;9.70;;;13.90;99.90;;;;;;5047805;28;20078;-49
2022/07/12 03:42:58;;;;;;;13.45;8.75;;;13.90;99.90;;;;;;5049136;28;20685;-49
2022/07/12 03:45:23;;;;;;;12.98;9.52;;;13.90;99.90;;;;;;5048517;28;20017;-47
2022/07/12 03:47:49;;;;;;;11.80;8.93;;;13.90;99.90;;;;;;5033690;28;20014;-49
2022/07/12 03:50:15;;;;;;;13.52;9.82;;;13.80;99.90;;;;;;5029234;28;20021;-48
2022/07/12 03:52:42;;;;;;;11.57;8.80;;;13.80;99.90;;;;;;5035969;28;20033;-49
2022/07/12 03:55:08;;;;;;;16.02;9.63;;;13.80;99.90;;;;;;5028822;28;20029;-49
2022/07/12 03:57:36;;;;;;;12.77;9.13;;;13.80;99.90;;;;;;5029178;28;20025;-47
2022/07/12 04:00:05;;;;;;;13.25;9.52;;;13.80;99.90;;;;;;5029008;28;20592;-47
2022/07/12 04:02:31;;;;;;;13.02;9.38;;;13.90;99.90;;;;;;5014648;28;20030;-47
2022/07/12 04:04:56;;;;;;;12.68;9.40;;;13.90;99.90;;;;;;5018338;28;20036;-48
2022/07/12 04:07:22;;;;;;;15.40;11.05;;;13.90;99.90;;;;;;5028992;28;20029;-48
2022/07/12 04:09:48;;;;;;;12.57;9.80;;;13.90;99.90;;;;;;5029044;28;20026;-48
2022/07/12 04:12:13;;;;;;;13.98;9.90;;;14.00;99.90;;;;;;5029296;28;20491;-48
2022/07/12 04:14:39;;;;;;;14.02;9.15;;;13.90;99.90;;;;;;5028080;28;20044;-48
2022/07/12 04:17:05;;;;;;;12.95;10.15;;;14.00;99.90;;;;;;5022038;28;20036;-47
2022/07/12 04:19:34;;;;;;;15.63;10.57;;;14.00;99.90;;;;;;5027579;28;20060;-47
2022/07/12 04:22:00;;;;;;;14.15;10.50;;;13.90;99.90;;;;;;5038535;28;20100;-46
2022/07/12 04:24:25;;;;;;;17.67;11.20;;;14.00;99.90;;;;;;5037394;28;20463;-48
2022/07/12 04:26:51;;;;;;;17.38;11.50;;;14.00;99.90;;;;;;5028445;28;20032;-47
2022/07/12 04:29:18;;;;;;;15.60;10.88;;;14.00;99.90;;;;;;5028396;28;20379;-47
2022/07/12 04:31:44;;;;;;;16.27;11.50;;;14.10;99.90;;;;;;5027581;28;20053;-46
2022/07/12 04:34:10;;;;;;;24.30;11.77;;;14.10;99.90;;;;;;5028009;28;20518;-47
2022/07/12 04:36:35;;;;;;;18.98;12.50;;;14.10;99.90;;;;;;5027265;28;20072;-47
2022/07/12 04:39:01;;;;;;;22.02;14.25;;;14.20;99.90;;;;;;5028960;28;20574;-47
2022/07/12 04:41:27;;;;;;;18.10;12.70;;;14.20;99.90;;;;;;5028581;28;20105;-46
2022/07/12 04:43:52;;;;;;;22.52;13.13;;;14.20;99.90;;;;;;5026939;28;20132;-47
2022/07/12 04:46:18;;;;;;;22.65;14.20;;;14.30;99.90;;;;;;5027267;28;20060;-47
2022/07/12 04:48:43;;;;;;;17.88;13.55;;;14.30;99.90;;;;;;5034947;28;20029;-48
2022/07/12 04:51:09;;;;;;;20.25;13.02;;;14.40;99.90;;;;;;5028374;28;20037;-47
2022/07/12 04:53:35;;;;;;;21.25;13.52;;;14.50;99.90;;;;;;5028377;28;20086;-47
2022/07/12 04:56:00;;;;;;;22.85;15.65;;;14.50;99.90;;;;;;5030770;28;20178;-47
2022/07/12 04:58:26;;;;;;;25.02;16.50;;;14.60;99.90;;;;;;5039662;28;20463;-48
2022/07/12 05:00:51;;;;;;;26.30;17.23;;;14.60;99.90;;;;;;5045793;28;20029;-48
2022/07/12 05:03:17;;;;;;;23.63;15.98;;;14.60;99.90;;;;;;5009496;28;20030;-47
2022/07/12 05:05:43;;;;;;;24.00;16.42;;;14.70;99.90;;;;;;5020274;28;20040;-46
2022/07/12 05:08:08;;;;;;;27.88;16.75;;;14.70;99.90;;;;;;5023157;28;20030;-46
2022/07/12 05:10:34;;;;;;;23.65;17.17;;;14.80;99.90;;;;;;5018093;28;20092;-46
2022/07/12 05:13:00;;;;;;;24.60;17.15;;;14.80;99.90;;;;;;5018021;28;20025;-46
2022/07/12 05:15:25;;;;;;;23.88;16.23;;;14.90;99.90;;;;;;5020980;28;20029;-46
2022/07/12 05:17:50;;;;;;;22.95;14.60;;;15.00;99.90;;;;;;5043089;28;20021;-47
2022/07/12 05:20:16;;;;;;;19.38;14.02;;;15.00;99.90;;;;;;5051609;28;20025;-46
2022/07/12 05:22:41;;;;;;;19.30;14.27;;;15.00;99.90;;;;;;5051983;28;20041;-47
2022/07/12 05:25:08;;;;;;;23.67;16.30;;;15.20;99.90;;;;;;5041429;28;20066;-50
2022/07/12 05:27:36;;;;;;;23.45;15.15;;;15.30;99.90;;;;;;5043138;28;20024;-47
2022/07/12 05:30:05;;;;;;;23.27;15.60;;;15.30;99.90;;;;;;5051355;28;20082;-47
2022/07/12 05:32:31;;;;;;;19.30;14.30;;;15.40;99.90;;;;;;5037931;28;20021;-47
2022/07/12 05:34:57;;;;;;;19.70;13.70;;;15.60;99.90;;;;;;5050597;28;20074;-48
2022/07/12 05:37:25;;;;;;;18.35;13.10;;;15.60;99.90;;;;;;5050015;28;20499;-48
2022/07/12 05:39:54;;;;;;;15.90;11.65;;;15.70;99.90;;;;;;5053124;28;20537;-48
2022/07/12 05:42:20;;;;;;;17.92;11.05;;;15.80;99.90;;;;;;5052845;28;20033;-48
2022/07/12 05:44:45;;;;;;;15.43;11.05;;;15.80;99.90;;;;;;5052296;28;20510;-50
2022/07/12 05:47:12;;;;;;;12.88;9.70;;;15.90;99.90;;;;;;5029864;28;20036;-47
2022/07/12 05:49:37;;;;;;;14.95;10.63;;;16.00;99.90;;;;;;5027444;28;20018;-47
2022/07/12 05:54:47;;;;;;;12.48;9.85;;;16.10;99.90;;;;;;5029453;28;20116;-48
2022/07/12 05:57:14;;;;;;;12.05;8.25;;;16.10;99.90;;;;;;5029896;28;20497;-47
2022/07/12 05:59:40;;;;;;;12.02;8.57;;;16.30;99.90;;;;;;5030561;28;20399;-47
2022/07/12 06:02:06;;;;;;;9.13;7.90;;;16.30;99.90;;;;;;5030257;28;20030;-47
2022/07/12 06:04:31;;;;;;;8.30;7.15;;;16.40;99.90;;;;;;5029567;28;20033;-47
2022/07/12 06:06:57;;;;;;;9.63;6.88;;;16.50;99.90;;;;;;5029711;28;20026;-47
2022/07/12 06:09:22;;;;;;;7.47;6.35;;;16.60;99.90;;;;;;5030319;28;20049;-48
2022/07/12 06:11:48;;;;;;;7.53;6.32;;;16.70;99.90;;;;;;5025581;28;20472;-47
2022/07/12 06:14:13;;;;;;;7.28;5.43;;;16.80;99.90;;;;;;5017377;28;20068;-48
2022/07/12 06:16:39;;;;;;;6.88;5.60;;;16.90;99.90;;;;;;5020160;28;20112;-47
2022/07/12 06:19:04;;;;;;;7.30;5.15;;;17.00;99.90;;;;;;5017304;28;20026;-47
2022/07/12 06:21:30;;;;;;;5.35;4.85;;;17.10;99.90;;;;;;5014681;28;20297;-48
2022/07/12 06:23:56;;;;;;;6.00;4.18;;;17.20;99.90;;;;;;5004954;28;20093;-48
2022/07/12 06:26:21;;;;;;;10.27;5.45;;;17.30;99.90;;;;;;5005883;28;20396;-47
2022/07/12 06:28:47;;;;;;;5.97;4.80;;;17.30;99.90;;;;;;5008761;28;20022;-48
2022/07/12 06:31:12;;;;;;;8.02;4.97;;;17.40;99.90;;;;;;5007733;28;20376;-48
2022/07/12 06:33:38;;;;;;;6.47;5.43;;;17.50;99.90;;;;;;5007884;28;20421;-50
2022/07/12 06:36:04;;;;;;;8.45;5.07;;;17.50;99.90;;;;;;5009113;28;20034;-49
2022/07/12 06:38:29;;;;;;;5.88;4.72;;;17.50;99.90;;;;;;5008803;28;20048;-48
2022/07/12 06:40:55;;;;;;;6.90;4.60;;;17.30;99.90;;;;;;5008651;28;20026;-48
2022/07/12 06:43:20;;;;;;;5.47;3.95;;;17.20;99.90;;;;;;5009603;28;20026;-48
2022/07/12 06:45:46;;;;;;;4.45;4.00;;;17.30;99.90;;;;;;5008736;28;20034;-50
2022/07/12 06:48:11;;;;;;;3.20;2.90;;;17.30;99.90;;;;;;5010088;28;20030;-47
2022/07/12 06:50:37;;;;;;;4.72;3.65;;;17.30;99.90;;;;;;5019608;28;20021;-47
2022/07/12 06:53:03;;;;;;;4.85;3.20;;;17.50;99.90;;;;;;5028361;28;20580;-49
2022/07/12 06:55:30;;;;;;;3.53;3.17;;;17.60;99.90;;;;;;5027362;28;20552;-50
2022/07/12 06:57:55;;;;;;;3.75;3.10;;;17.70;99.90;;;;;;5028644;28;20045;-49
2022/07/12 07:00:21;;;;;;;3.03;2.60;;;17.60;99.90;;;;;;5028982;28;20037;-48
2022/07/12 07:02:46;;;;;;;4.00;2.75;;;17.60;99.90;;;;;;5027654;28;20368;-48
2022/07/12 07:05:12;;;;;;;6.03;3.35;;;17.70;99.90;;;;;;5029188;28;20018;-49
2022/07/12 07:07:37;;;;;;;4.32;3.83;;;17.50;99.90;;;;;;5028986;28;20037;-47
2022/07/12 07:10:05;;;;;;;7.72;5.22;;;17.70;99.90;;;;;;5029222;28;20029;-50
2022/07/12 07:12:31;;;;;;;5.18;3.80;;;17.90;99.90;;;;;;5029284;28;20070;-48
2022/07/12 07:14:56;;;;;;;3.50;3.08;;;18.10;99.90;;;;;;5026737;28;20429;-48
2022/07/12 07:17:22;;;;;;;3.33;2.90;;;18.10;99.90;;;;;;5027247;28;20562;-48
2022/07/12 07:19:47;;;;;;;3.63;2.50;;;18.30;99.90;;;;;;5027584;28;20033;-49
2022/07/12 07:22:13;;;;;;;4.88;2.70;;;18.40;99.90;;;;;;5028924;28;20108;-50
2022/07/12 07:24:39;;;;;;;3.20;2.90;;;18.50;99.90;;;;;;5028250;28;20053;-48
2022/07/12 07:27:05;;;;;;;5.25;2.90;;;18.60;99.90;;;;;;5028109;28;20025;-48
2022/07/12 07:32:15;;;;;;;3.53;2.35;;;18.70;99.90;;;;;;5028333;28;20402;-48
2022/07/12 07:34:41;;;;;;;3.60;2.10;;;18.70;99.90;;;;;;5028381;28;20029;-48
2022/07/12 07:37:07;;;;;;;4.25;1.92;;;18.80;99.90;;;;;;5028013;28;20018;-48
2022/07/12 07:39:33;;;;;;;4.50;2.75;;;18.80;99.90;;;;;;5027899;28;20036;-48
2022/07/12 07:41:59;;;;;;;2.40;2.20;;;18.80;99.90;;;;;;5028814;28;20025;-48
2022/07/12 07:44:24;;;;;;;2.60;2.40;;;18.80;99.90;;;;;;5026628;28;20422;-48
2022/07/12 07:46:50;;;;;;;5.15;2.50;;;18.90;99.90;;;;;;5028668;28;20070;-48
2022/07/12 07:49:15;;;;;;;4.28;2.95;;;19.00;99.90;;;;;;5027917;28;20032;-50
2022/07/12 07:51:41;;;;;;;2.50;2.30;;;19.10;99.90;;;;;;5026922;28;20034;-48
2022/07/12 07:54:06;;;;;;;2.45;2.22;;;19.30;99.90;;;;;;5025815;28;20509;-51
2022/07/12 07:56:32;;;;;;;3.33;2.40;;;19.50;99.90;;;;;;5026590;28;20092;-46
2022/07/12 07:58:57;;;;;;;2.67;2.47;;;19.70;99.90;;;;;;5028023;28;20037;-48
2022/07/12 08:04:27;;;;;;;3.25;2.35;;;19.90;99.90;;;;;;5005504;28;20034;-46
2022/07/12 08:06:52;;;;;;;3.10;1.90;;;19.80;99.90;;;;;;4998514;28;20700;-51
2022/07/12 08:09:18;;;;;;;2.50;2.10;;;20.10;99.90;;;;;;5008976;28;20037;-50
2022/07/12 08:11:43;;;;;;;2.33;2.13;;;20.10;99.90;;;;;;5019286;28;20451;-46
2022/07/12 08:14:10;;;;;;;3.03;2.17;;;20.10;99.90;;;;;;5020802;28;20044;-49
2022/07/12 08:16:36;;;;;;;3.38;1.85;;;20.10;99.90;;;;;;5026490;28;20125;-47
2022/07/12 08:19:02;;;;;;;2.10;1.80;;;20.30;99.90;;;;;;5030386;28;20087;-47
2022/07/12 08:21:28;;;;;;;1.30;1.20;;;20.70;99.90;;;;;;5030111;28;20045;-49
2022/07/12 08:23:54;;;;;;;2.65;1.67;;;21.50;99.90;;;;;;5029954;28;20080;-46
2022/07/12 08:26:20;;;;;;;3.53;1.60;;;22.40;99.90;;;;;;5029923;28;20014;-46
2022/07/12 08:28:45;;;;;;;2.25;1.20;;;23.70;98.30;;;;;;5030126;28;20018;-49
2022/07/12 08:31:13;;;;;;;2.45;1.73;;;24.80;96.00;;;;;;5021983;28;20022;-47
2022/07/12 08:33:40;;;;;;;2.85;1.30;;;25.70;93.70;;;;;;5021300;28;20883;-49
2022/07/12 08:36:06;;;;;;;4.03;1.30;;;27.10;90.60;;;;;;5018787;28;20021;-49
2022/07/12 08:38:33;;;;;;;2.75;1.50;;;27.30;87.70;;;;;;5020017;28;20497;-50
2022/07/12 08:40:59;;;;;;;1.38;0.93;;;27.60;86.10;;;;;;5021233;28;20031;-49
2022/07/12 08:43:24;;;;;;;2.38;1.42;;;28.10;81.40;;;;;;5019060;28;20105;-47
2022/07/12 08:45:50;;;;;;;1.58;1.15;;;28.70;77.80;;;;;;5020896;28;20069;-49
2022/07/12 08:48:15;;;;;;;1.27;1.10;;;28.80;78.30;;;;;;5019017;28;20033;-50
2022/07/12 08:50:41;;;;;;;1.38;1.20;;;29.50;73.50;;;;;;5021035;28;20065;-49
2022/07/12 08:53:10;;;;;;;1.35;1.08;;;30.40;72.30;;;;;;5024575;28;20487;-50
2022/07/12 08:55:36;;;;;;;;;;;30.40;71.00;;;;;;5024158;28;20021;-50
2022/07/12 08:58:14;;;;;;;1.50;1.02;;;31.00;69.40;;;;;;5022558;28;19906;-49
2022/07/12 09:00:40;;;;;;;2.05;1.15;;;31.30;67.90;;;;;;5022707;28;20410;-50
2022/07/12 09:03:07;;;;;;;1.10;1.00;;;31.20;65.30;;;;;;5024331;28;20040;-49
2022/07/12 09:05:33;;;;;;;3.80;1.27;;;32.30;65.00;;;;;;5023098;28;20367;-50
2022/07/12 09:08:05;;;;;;;1.40;1.17;;;30.60;62.70;;;;;;5022036;28;20067;-51
2022/07/12 09:10:32;;;;;;;2.65;0.80;;;29.50;66.30;;;;;;5022376;28;20018;-49
2022/07/12 09:12:57;;;;;;;0.88;0.75;;;30.60;65.20;;;;;;5023585;28;20075;-51
2022/07/12 09:15:24;;;;;;;2.40;1.00;;;31.20;64.30;;;;;;5023291;28;20059;-50
2022/07/12 09:18:02;;;;;;;6.40;2.42;;;31.80;63.70;;;;;;5019582;28;20022;-49
2022/07/12 09:20:31;;;;;;;1.92;1.23;;;32.10;61.60;;;;;;5013817;28;20022;-51
2022/07/12 09:23:04;;;;;;;1.35;1.15;;;32.20;61.30;;;;;;5013609;28;20120;-49
2022/07/12 09:25:32;;;;;;;1.58;0.90;;;30.10;62.80;;;;;;5024224;28;20643;-51
2022/07/12 09:27:58;;;;;;;3.53;0.90;;;30.10;65.80;;;;;;5023287;28;20014;-49
2022/07/12 09:30:28;;;;;;;1.40;0.90;;;30.80;64.10;;;;;;5022375;28;20021;-51
2022/07/12 09:36:06;;;;;;;1.42;1.20;;;32.00;61.20;;;;;;5023736;28;20041;-50
2022/07/12 09:38:56;;;;;;;1.58;1.00;;;33.00;61.50;;;;;;5023898;28;20492;-50
2022/07/12 09:41:22;;;;;;;1.20;1.00;;;33.10;58.40;;;;;;5021055;28;20030;-50
2022/07/12 09:43:49;;;;;;;1.98;1.23;;;34.20;59.00;;;;;;5022140;28;20113;-51
2022/07/12 09:46:16;;;;;;;1.30;1.20;;;33.90;57.00;;;;;;5021696;28;20033;-50
2022/07/12 09:48:42;;;;;;;0.90;0.80;;;32.90;58.10;;;;;;5022087;28;20061;-49
2022/07/12 09:51:09;;;;;;;2.60;1.10;;;32.40;58.80;;;;;;5022271;28;20037;-50
2022/07/12 09:53:43;;;;;;;1.90;1.08;;;32.30;57.90;;;;;;5017727;28;20517;-47
2022/07/12 09:56:21;;;;;;;2.15;0.93;;;31.70;61.10;;;;;;5023960;28;20017;-50
2022/07/12 09:58:50;;;;;;;1.48;0.80;;;31.50;60.10;;;;;;5021247;28;20022;-50
2022/07/12 10:01:17;;;;;;;2.78;1.02;;;31.00;61.00;;;;;;5022582;28;20022;-49
2022/07/12 10:03:43;;;;;;;2.80;1.00;;;30.30;60.00;;;;;;5023047;28;20041;-48
2022/07/12 10:06:11;;;;;;;0.82;0.82;;;29.20;63.80;;;;;;5019600;28;20087;-51
2022/07/12 10:08:36;;;;;;;1.52;0.93;;;29.10;65.00;;;;;;5020848;28;20026;-48
2022/07/12 10:11:02;;;;;;;1.55;1.45;;;28.50;65.90;;;;;;5025533;28;20040;-49
2022/07/12 10:13:30;;;;;;;1.30;1.10;;;28.20;66.90;;;;;;5023188;28;20042;-48
2022/07/12 10:16:00;;;;;;;2.97;0.95;;;28.00;66.10;;;;;;5021828;28;20029;-49
2022/07/12 10:18:26;;;;;;;2.42;1.10;;;27.90;65.90;;;;;;5021229;28;20037;-47
2022/07/12 10:20:52;;;;;;;1.40;1.00;;;27.70;66.00;;;;;;5020891;28;20076;-48
2022/07/12 10:23:35;;;;;;;1.13;0.90;;;27.60;67.90;;;;;;5022163;28;20065;-48
2022/07/12 10:26:13;;;;;;;4.68;1.02;;;27.30;68.80;;;;;;5021618;28;20037;-48
2022/07/12 10:28:55;;;;;;;1.38;1.10;;;27.40;70.10;;;;;;5023087;28;20045;-50
2022/07/12 10:31:23;;;;;;;2.30;1.05;;;27.30;69.40;;;;;;5045248;28;20364;-48
2022/07/12 10:33:59;;;;;;;1.27;1.10;;;27.50;67.70;;;;;;5023489;28;20527;-47
2022/07/12 10:36:25;;;;;;;3.60;0.95;;;27.30;67.30;;;;;;5022491;28;20061;-48
2022/07/12 10:39:11;;;;;;;1.90;1.15;;;27.50;67.00;;;;;;5022724;28;20084;-50
2022/07/12 10:41:36;;;;;;;1.00;0.90;;;27.70;67.90;;;;;;5022701;28;20018;-47
2022/07/12 10:44:06;;;;;;;1.20;1.00;;;27.90;66.50;;;;;;5020889;28;20080;-50
2022/07/12 10:46:34;;;;;;;1.23;1.17;;;28.50;65.20;;;;;;5020819;28;20575;-51
2022/07/12 10:49:28;;;;;;;0.70;0.70;;;29.20;62.00;;;;;;5022305;28;20029;-51
2022/07/12 10:52:11;;;;;;;0.80;0.80;;;29.50;63.00;;;;;;5022960;28;20096;-49
2022/07/12 10:54:38;;;;;;;2.10;1.00;;;31.10;61.10;;;;;;5021970;28;20144;-50
2022/07/12 10:57:04;;;;;;;2.92;0.77;;;32.00;57.10;;;;;;5021591;28;20021;-51
2022/07/12 10:59:32;;;;;;;0.95;0.73;;;32.70;55.30;;;;;;5020849;28;20033;-51
2022/07/12 11:01:59;;;;;;;1.00;0.90;;;33.10;52.70;;;;;;5023251;28;20030;-50
2022/07/12 11:04:27;;;;;;;0.80;0.80;;;32.90;53.80;;;;;;5025169;28;20022;-49
2022/07/12 11:06:55;;;;;;;0.63;0.60;;;33.00;53.60;;;;;;5031599;28;20009;-50
2022/07/12 11:09:21;;;;;;;1.10;0.90;;;32.90;53.60;;;;;;5031436;28;20018;-49
2022/07/12 11:11:49;;;;;;;0.70;0.70;;;33.40;53.60;;;;;;5028288;28;20097;-48
2022/07/12 11:14:30;;;;;;;2.30;0.80;;;34.40;54.50;;;;;;5017946;28;20033;-50
2022/07/12 11:16:57;;;;;;;0.70;0.70;;;34.20;52.70;;;;;;5031543;28;20515;-50
2022/07/12 11:19:24;;;;;;;1.95;0.90;;;34.00;54.20;;;;;;5031015;28;20533;-48
2022/07/12 11:21:55;;;;;;;1.10;0.90;;;34.30;52.90;;;;;;5031255;28;20021;-48
2022/07/12 11:24:22;;;;;;;3.00;0.90;;;34.20;52.40;;;;;;5030604;28;20029;-48
2022/07/12 11:26:48;;;;;;;0.80;0.80;;;33.90;50.60;;;;;;5031304;28;20430;-49
2022/07/12 11:29:14;;;;;;;2.67;0.98;;;34.50;50.70;;;;;;5031385;28;20056;-48
2022/07/12 11:31:40;;;;;;;1.73;1.42;;;35.40;50.80;;;;;;5029879;28;20518;-50
2022/07/12 11:34:05;;;;;;;2.38;1.10;;;35.20;49.80;;;;;;5029888;28;20120;-50
2022/07/12 11:36:32;;;;;;;1.48;0.90;;;34.70;49.80;;;;;;5029497;28;20056;-48
2022/07/12 11:38:58;;;;;;;5.18;1.20;;;34.80;49.20;;;;;;5030870;28;20083;-47
2022/07/12 11:41:24;;;;;;;1.42;1.17;;;34.90;49.70;;;;;;5030891;28;20029;-48
2022/07/12 11:43:50;;;;;;;2.58;1.30;;;35.20;50.90;;;;;;5030631;28;20070;-49
2022/07/12 11:46:16;;;;;;;4.28;1.83;;;35.30;49.60;;;;;;5029252;28;20606;-49
2022/07/12 11:48:42;;;;;;;1.67;1.58;;;34.50;48.20;;;;;;5029063;28;20121;-49
2022/07/12 11:51:10;;;;;;;2.17;1.98;;;34.90;49.70;;;;;;5028892;28;20101;-49
2022/07/12 11:53:37;;;;;;;2.85;2.17;;;34.40;46.60;;;;;;5027604;28;20514;-49
2022/07/12 11:56:04;;;;;;;1.80;1.70;;;34.40;50.00;;;;;;5028397;28;20078;-48
2022/07/12 11:58:32;;;;;;;1.70;1.60;;;34.90;48.10;;;;;;5028994;28;20425;-50
2022/07/12 12:00:58;;;;;;;1.98;1.80;;;35.00;46.50;;;;;;5028879;28;20033;-49
2022/07/12 12:03:24;;;;;;;2.47;2.28;;;34.80;49.00;;;;;;5028860;28;20037;-50
2022/07/12 12:06:00;;;;;;;4.25;2.35;;;35.40;47.20;;;;;;5028477;28;20097;-50
2022/07/12 12:08:26;;;;;;;2.08;1.90;;;34.60;47.50;;;;;;5029094;28;20036;-50
2022/07/12 12:10:59;;;;;;;3.97;2.30;;;34.20;48.60;;;;;;5023152;28;20116;-50
2022/07/12 12:13:26;;;;;;;3.35;2.03;;;34.00;47.50;;;;;;5025600;28;20033;-50
2022/07/12 12:15:54;;;;;;;4.03;2.45;;;33.40;50.80;;;;;;5027145;28;20034;-47
2022/07/12 12:18:39;;;;;;;3.35;1.70;;;33.10;50.40;;;;;;5024684;28;20045;-47
2022/07/12 12:21:12;;;;;;;2.33;2.13;;;32.40;51.40;;;;;;5028112;28;20021;-48
2022/07/12 12:23:41;;;;;;;1.75;1.65;;;31.70;51.30;;;;;;5028094;28;20029;-49
2022/07/12 12:26:09;;;;;;;3.05;2.00;;;31.50;51.90;;;;;;5027149;28;20171;-49
2022/07/12 12:28:41;;;;;;;2.45;2.03;;;31.40;51.00;;;;;;5028109;28;20120;-48
2022/07/12 12:31:09;;;;;;;2.47;2.28;;;31.30;51.00;;;;;;5028349;28;20048;-48
2022/07/12 12:33:40;;;;;;;1.92;1.80;;;31.50;51.50;;;;;;5028271;28;20045;-48
2022/07/12 12:36:23;;;;;;;3.95;2.15;;;31.60;51.70;;;;;;5028193;28;20550;-48
2022/07/12 12:38:56;;;;;;;2.20;2.00;;;31.60;50.20;;;;;;5028241;28;20394;-49
2022/07/12 12:41:23;;;;;;;3.22;2.40;;;31.20;52.70;;;;;;5028215;28;20033;-47
2022/07/12 12:44:03;;;;;;;2.45;2.20;;;30.50;50.70;;;;;;5027780;28;20036;-48
2022/07/12 12:46:45;;;;;;;3.13;2.45;;;30.10;50.80;;;;;;5028324;28;20022;-50
2022/07/12 12:49:11;;;;;;;2.97;2.22;;;30.50;51.60;;;;;;5028096;28;20348;-48
2022/07/12 12:51:54;;;;;;;3.58;2.13;;;30.30;53.40;;;;;;5029039;28;20500;-51
2022/07/12 12:54:37;;;;;;;2.97;2.00;;;30.60;52.20;;;;;;5028484;28;20030;-47